createdAt,value
2017-07-29T00:00:13.864Z,1006.61
2017-07-29T00:00:41.597Z,1006.6
2017-07-29T00:01:08.578Z,1006.61
2017-07-29T00:01:35.711Z,1006.58
2017-07-29T00:02:03.243Z,1006.64
2017-07-29T00:02:31.431Z,1006.63
2017-07-29T00:02:58.579Z,1006.66
2017-07-29T00:03:24.688Z,1006.64
2017-07-29T00:03:50.840Z,1006.64
2017-07-29T00:04:16.979Z,1006.61
2017-07-29T00:04:43.136Z,1006.61
2017-07-29T00:05:09.316Z,1006.59
2017-07-29T00:05:35.431Z,1006.62
2017-07-29T00:06:01.535Z,1006.57
2017-07-29T00:06:27.649Z,1006.52
2017-07-29T00:06:53.809Z,1006.53
2017-07-29T00:07:19.933Z,1006.53
2017-07-29T00:07:46.046Z,1006.5
2017-07-29T00:08:12.178Z,1006.5
2017-07-29T00:08:38.306Z,1006.52
2017-07-29T00:09:04.448Z,1006.51
2017-07-29T00:09:30.573Z,1006.52
2017-07-29T00:09:56.707Z,1006.52
2017-07-29T00:10:22.845Z,1006.52
2017-07-29T00:10:48.974Z,1006.5
2017-07-29T00:11:15.102Z,1006.48
2017-07-29T00:11:41.218Z,1006.49
2017-07-29T00:12:07.320Z,1006.5
2017-07-29T00:12:33.488Z,1006.45
2017-07-29T00:12:59.636Z,1006.44
2017-07-29T00:13:25.797Z,1006.45
2017-07-29T00:13:51.912Z,1006.44
2017-07-29T00:14:18.056Z,1006.41
2017-07-29T00:14:44.222Z,1006.4
2017-07-29T00:15:10.362Z,1006.42
2017-07-29T00:15:36.505Z,1006.42
2017-07-29T00:16:02.641Z,1006.38
2017-07-29T00:16:28.784Z,1006.39
2017-07-29T00:16:54.923Z,1006.38
2017-07-29T00:17:21.057Z,1006.37
2017-07-29T00:17:47.156Z,1006.39
2017-07-29T00:18:13.293Z,1006.37
2017-07-29T00:18:39.428Z,1006.31
2017-07-29T00:19:05.583Z,1006.29
2017-07-29T00:19:31.722Z,1006.32
2017-07-29T00:19:57.852Z,1006.3
2017-07-29T00:20:23.984Z,1006.33
2017-07-29T00:20:50.097Z,1006.3
2017-07-29T00:21:16.196Z,1006.27
2017-07-29T00:21:42.415Z,1006.28
2017-07-29T00:22:08.579Z,1006.31
2017-07-29T00:22:34.700Z,1006.23
2017-07-29T00:23:00.851Z,1006.26
2017-07-29T00:23:26.980Z,1006.26
2017-07-29T00:23:53.223Z,1006.21
2017-07-29T00:24:19.335Z,1006.16
2017-07-29T00:24:45.484Z,1006.21
2017-07-29T00:25:11.640Z,1006.17
2017-07-29T00:25:37.732Z,1006.18
2017-07-29T00:26:03.853Z,1006.16
2017-07-29T00:26:30.015Z,1006.15
2017-07-29T00:26:56.134Z,1006.16
2017-07-29T00:27:22.298Z,1006.11
2017-07-29T00:27:48.435Z,1006.1
2017-07-29T00:28:14.590Z,1006.11
2017-07-29T00:28:40.742Z,1006.15
2017-07-29T00:29:06.857Z,1006.08
2017-07-29T00:29:33.051Z,1006.15
2017-07-29T00:29:59.187Z,1006.1
2017-07-29T00:30:25.358Z,1006.13
2017-07-29T00:30:51.496Z,1006.11
2017-07-29T00:31:17.604Z,1006.11
2017-07-29T00:31:43.725Z,1006.1
2017-07-29T00:32:09.815Z,1006.11
2017-07-29T00:32:35.946Z,1006.08
2017-07-29T00:33:02.136Z,1006.08
2017-07-29T00:33:28.254Z,1006.09
2017-07-29T00:33:54.435Z,1006.12
2017-07-29T00:34:20.530Z,1006.12
2017-07-29T00:34:46.703Z,1006.11
2017-07-29T00:35:12.846Z,1006.11
2017-07-29T00:35:38.938Z,1006.14
2017-07-29T00:36:05.097Z,1006.15
2017-07-29T00:36:31.224Z,1006.13
2017-07-29T00:36:57.389Z,1006.15
2017-07-29T00:37:23.562Z,1006.14
2017-07-29T00:37:49.723Z,1006.1
2017-07-29T00:38:15.861Z,1006.09
2017-07-29T00:38:41.961Z,1006.09
2017-07-29T00:39:08.064Z,1006.09
2017-07-29T00:39:34.179Z,1006.06
2017-07-29T00:40:00.350Z,1006.06
2017-07-29T00:40:26.483Z,1006.04
2017-07-29T00:40:52.608Z,1006.02
2017-07-29T00:41:18.774Z,1006.04
2017-07-29T00:41:44.909Z,1006
2017-07-29T00:42:11.084Z,1006.03
2017-07-29T00:42:37.401Z,1006.06
2017-07-29T00:43:03.506Z,1006.03
2017-07-29T00:43:29.663Z,1006.02
2017-07-29T00:43:55.777Z,1006
2017-07-29T00:44:21.907Z,1006.03
2017-07-29T00:44:48.041Z,1006.05
2017-07-29T00:45:14.160Z,1006
2017-07-29T00:45:40.320Z,1006.05
2017-07-29T00:46:06.458Z,1006.02
2017-07-29T00:46:32.614Z,1006.02
2017-07-29T00:46:58.742Z,1005.99
2017-07-29T00:47:24.858Z,1006.01
2017-07-29T00:47:50.990Z,1006.03
2017-07-29T00:48:17.097Z,1006.05
2017-07-29T00:48:43.209Z,1006.01
2017-07-29T00:49:09.377Z,1006.04
2017-07-29T00:49:35.483Z,1005.98
2017-07-29T00:50:01.603Z,1005.98
2017-07-29T00:50:27.750Z,1005.94
2017-07-29T00:50:53.926Z,1005.94
2017-07-29T00:51:20.085Z,1005.91
2017-07-29T00:51:46.223Z,1005.88
2017-07-29T00:52:12.333Z,1005.87
2017-07-29T00:52:38.482Z,1005.82
2017-07-29T00:53:04.654Z,1005.8
2017-07-29T00:53:30.745Z,1005.81
2017-07-29T00:53:56.866Z,1005.8
2017-07-29T00:54:23.025Z,1005.81
2017-07-29T00:54:49.120Z,1005.78
2017-07-29T00:55:15.259Z,1005.78
2017-07-29T00:55:41.423Z,1005.8
2017-07-29T00:56:07.545Z,1005.74
2017-07-29T00:56:33.676Z,1005.8
2017-07-29T00:56:59.815Z,1005.8
2017-07-29T00:57:25.936Z,1005.79
2017-07-29T00:57:52.068Z,1005.77
2017-07-29T00:58:18.252Z,1005.77
2017-07-29T00:58:44.353Z,1005.78
2017-07-29T00:59:10.568Z,1005.76
2017-07-29T00:59:36.663Z,1005.74
2017-07-29T01:00:02.776Z,1005.72
2017-07-29T01:00:28.888Z,1005.71
2017-07-29T01:00:54.985Z,1005.68
2017-07-29T01:01:21.123Z,1005.66
2017-07-29T01:01:47.226Z,1005.65
2017-07-29T01:02:13.353Z,1005.63
2017-07-29T01:02:39.467Z,1005.67
2017-07-29T01:03:05.594Z,1005.67
2017-07-29T01:03:31.750Z,1005.63
2017-07-29T01:03:57.893Z,1005.64
2017-07-29T01:04:24.051Z,1005.63
2017-07-29T01:04:50.184Z,1005.62
2017-07-29T01:05:16.329Z,1005.59
2017-07-29T01:05:42.586Z,1005.61
2017-07-29T01:06:08.721Z,1005.59
2017-07-29T01:06:34.893Z,1005.61
2017-07-29T01:07:01.080Z,1005.57
2017-07-29T01:07:27.216Z,1005.58
2017-07-29T01:07:53.346Z,1005.58
2017-07-29T01:08:19.481Z,1005.54
2017-07-29T01:08:45.681Z,1005.55
2017-07-29T01:09:11.770Z,1005.54
2017-07-29T01:09:37.962Z,1005.49
2017-07-29T01:10:04.117Z,1005.5
2017-07-29T01:10:30.254Z,1005.49
2017-07-29T01:10:56.363Z,1005.51
2017-07-29T01:11:22.514Z,1005.48
2017-07-29T01:11:48.654Z,1005.45
2017-07-29T01:12:14.810Z,1005.43
2017-07-29T01:12:40.916Z,1005.43
2017-07-29T01:13:07.034Z,1005.45
2017-07-29T01:13:33.208Z,1005.43
2017-07-29T01:13:59.301Z,1005.4
2017-07-29T01:14:25.473Z,1005.42
2017-07-29T01:14:51.552Z,1005.41
2017-07-29T01:15:17.691Z,1005.4
2017-07-29T01:15:43.868Z,1005.38
2017-07-29T01:16:09.998Z,1005.35
2017-07-29T01:16:36.133Z,1005.39
2017-07-29T01:17:02.304Z,1005.38
2017-07-29T01:17:28.470Z,1005.35
2017-07-29T01:17:54.610Z,1005.36
2017-07-29T01:18:20.729Z,1005.34
2017-07-29T01:18:46.852Z,1005.31
2017-07-29T01:19:13.008Z,1005.33
2017-07-29T01:19:39.143Z,1005.31
2017-07-29T01:20:05.254Z,1005.29
2017-07-29T01:20:31.380Z,1005.29
2017-07-29T01:20:57.568Z,1005.27
2017-07-29T01:21:23.661Z,1005.31
2017-07-29T01:21:49.827Z,1005.25
2017-07-29T01:22:15.988Z,1005.26
2017-07-29T01:22:42.189Z,1005.24
2017-07-29T01:23:08.335Z,1005.31
2017-07-29T01:23:34.477Z,1005.31
2017-07-29T01:24:00.573Z,1005.3
2017-07-29T01:24:26.698Z,1005.3
2017-07-29T01:24:52.868Z,1005.27
2017-07-29T01:25:18.991Z,1005.29
2017-07-29T01:25:45.179Z,1005.3
2017-07-29T01:26:11.271Z,1005.29
2017-07-29T01:26:37.400Z,1005.27
2017-07-29T01:27:03.556Z,1005.28
2017-07-29T01:27:29.680Z,1005.28
2017-07-29T01:27:55.793Z,1005.29
2017-07-29T01:28:22.009Z,1005.3
2017-07-29T01:28:48.190Z,1005.25
2017-07-29T01:29:14.353Z,1005.24
2017-07-29T01:29:40.455Z,1005.24
2017-07-29T01:30:06.595Z,1005.25
2017-07-29T01:30:32.736Z,1005.22
2017-07-29T01:30:58.830Z,1005.21
2017-07-29T01:31:24.920Z,1005.2
2017-07-29T01:31:51.080Z,1005.22
2017-07-29T01:32:17.179Z,1005.2
2017-07-29T01:32:43.319Z,1005.15
2017-07-29T01:33:09.444Z,1005.19
2017-07-29T01:33:35.606Z,1005.13
2017-07-29T01:34:01.740Z,1005.18
2017-07-29T01:34:27.863Z,1005.17
2017-07-29T01:34:53.995Z,1005.12
2017-07-29T01:35:20.162Z,1005.15
2017-07-29T01:35:46.320Z,1005.13
2017-07-29T01:36:12.438Z,1005.12
2017-07-29T01:36:38.565Z,1005.17
2017-07-29T01:37:04.779Z,1005.15
2017-07-29T01:37:30.893Z,1005.17
2017-07-29T01:37:56.991Z,1005.16
2017-07-29T01:38:23.154Z,1005.14
2017-07-29T01:38:49.275Z,1005.2
2017-07-29T01:39:15.417Z,1005.17
2017-07-29T01:39:41.551Z,1005.17
2017-07-29T01:40:07.749Z,1005.17
2017-07-29T01:40:33.886Z,1005.14
2017-07-29T01:41:00.100Z,1005.15
2017-07-29T01:41:26.248Z,1005.11
2017-07-29T01:41:52.434Z,1005.12
2017-07-29T01:42:18.571Z,1005.1
2017-07-29T01:42:44.669Z,1005.05
2017-07-29T01:43:10.805Z,1005.08
2017-07-29T01:43:36.951Z,1005.08
2017-07-29T01:44:03.067Z,1005.06
2017-07-29T01:44:29.204Z,1005.11
2017-07-29T01:44:55.299Z,1005.1
2017-07-29T01:45:21.462Z,1005.07
2017-07-29T01:45:47.597Z,1005.08
2017-07-29T01:46:13.755Z,1005.03
2017-07-29T01:46:39.870Z,1005.06
2017-07-29T01:47:06.025Z,1005.06
2017-07-29T01:47:32.159Z,1005.01
2017-07-29T01:47:58.295Z,1005.07
2017-07-29T01:48:24.396Z,1005.03
2017-07-29T01:48:50.560Z,1005.03
2017-07-29T01:49:16.725Z,1005.04
2017-07-29T01:49:42.867Z,1005.01
2017-07-29T01:50:09.003Z,1004.98
2017-07-29T01:50:35.121Z,1004.96
2017-07-29T01:51:01.260Z,1004.95
2017-07-29T01:51:27.398Z,1004.95
2017-07-29T01:51:53.524Z,1004.96
2017-07-29T01:52:19.652Z,1004.94
2017-07-29T01:52:45.793Z,1004.9
2017-07-29T01:53:11.938Z,1004.91
2017-07-29T01:53:38.070Z,1004.94
2017-07-29T01:54:04.244Z,1004.91
2017-07-29T01:54:30.362Z,1004.93
2017-07-29T01:54:56.473Z,1004.96
2017-07-29T01:55:22.653Z,1004.92
2017-07-29T01:55:48.744Z,1004.96
2017-07-29T01:56:14.889Z,1004.97
2017-07-29T01:56:41.041Z,1004.93
2017-07-29T01:57:07.179Z,1004.93
2017-07-29T01:57:33.311Z,1004.95
2017-07-29T01:57:59.450Z,1004.91
2017-07-29T01:58:25.564Z,1004.95
2017-07-29T01:58:51.681Z,1004.92
2017-07-29T01:59:17.798Z,1004.9
2017-07-29T01:59:43.957Z,1004.92
2017-07-29T02:00:10.113Z,1004.88
2017-07-29T02:00:36.230Z,1004.88
2017-07-29T02:01:02.355Z,1004.91
2017-07-29T02:01:28.490Z,1004.87
2017-07-29T02:01:54.625Z,1004.91
2017-07-29T02:02:20.747Z,1004.91
2017-07-29T02:02:46.881Z,1004.92
2017-07-29T02:03:12.972Z,1004.9
2017-07-29T02:03:39.079Z,1004.89
2017-07-29T02:04:05.191Z,1004.89
2017-07-29T02:04:31.296Z,1004.95
2017-07-29T02:04:57.402Z,1004.94
2017-07-29T02:05:23.515Z,1004.88
2017-07-29T02:05:49.615Z,1004.89
2017-07-29T02:06:15.749Z,1004.87
2017-07-29T02:06:41.862Z,1004.85
2017-07-29T02:07:07.986Z,1004.87
2017-07-29T02:07:34.117Z,1004.86
2017-07-29T02:08:00.263Z,1004.91
2017-07-29T02:08:26.352Z,1004.89
2017-07-29T02:08:52.509Z,1004.92
2017-07-29T02:09:18.608Z,1004.91
2017-07-29T02:09:44.714Z,1004.9
2017-07-29T02:10:10.854Z,1004.9
2017-07-29T02:10:37.003Z,1004.87
2017-07-29T02:11:03.165Z,1004.85
2017-07-29T02:11:29.340Z,1004.86
2017-07-29T02:11:55.480Z,1004.87
2017-07-29T02:12:21.619Z,1004.86
2017-07-29T02:12:47.768Z,1004.86
2017-07-29T02:13:13.904Z,1004.86
2017-07-29T02:13:40.092Z,1004.82
2017-07-29T02:14:06.246Z,1004.82
2017-07-29T02:14:32.396Z,1004.83
2017-07-29T02:14:58.550Z,1004.87
2017-07-29T02:15:24.666Z,1004.84
2017-07-29T02:15:50.830Z,1004.84
2017-07-29T02:16:16.978Z,1004.77
2017-07-29T02:16:43.117Z,1004.79
2017-07-29T02:17:09.251Z,1004.76
2017-07-29T02:17:35.349Z,1004.79
2017-07-29T02:18:01.473Z,1004.75
2017-07-29T02:18:27.627Z,1004.78
2017-07-29T02:18:53.757Z,1004.7
2017-07-29T02:19:19.871Z,1004.68
2017-07-29T02:19:45.991Z,1004.7
2017-07-29T02:20:12.138Z,1004.73
2017-07-29T02:20:38.300Z,1004.72
2017-07-29T02:21:04.427Z,1004.74
2017-07-29T02:21:30.544Z,1004.7
2017-07-29T02:21:56.647Z,1004.7
2017-07-29T02:22:22.808Z,1004.67
2017-07-29T02:22:48.944Z,1004.72
2017-07-29T02:23:15.042Z,1004.7
2017-07-29T02:23:41.201Z,1004.67
2017-07-29T02:24:07.291Z,1004.74
2017-07-29T02:24:33.388Z,1004.73
2017-07-29T02:24:59.550Z,1004.71
2017-07-29T02:25:25.723Z,1004.7
2017-07-29T02:25:51.884Z,1004.71
2017-07-29T02:26:17.970Z,1004.67
2017-07-29T02:26:44.118Z,1004.65
2017-07-29T02:27:10.251Z,1004.66
2017-07-29T02:27:36.342Z,1004.71
2017-07-29T02:28:02.463Z,1004.66
2017-07-29T02:28:28.596Z,1004.65
2017-07-29T02:28:54.741Z,1004.63
2017-07-29T02:29:20.894Z,1004.63
2017-07-29T02:29:47.028Z,1004.64
2017-07-29T02:30:13.122Z,1004.65
2017-07-29T02:30:39.264Z,1004.68
2017-07-29T02:31:05.453Z,1004.61
2017-07-29T02:31:31.660Z,1004.65
2017-07-29T02:31:57.786Z,1004.66
2017-07-29T02:32:23.916Z,1004.64
2017-07-29T02:32:50.077Z,1004.62
2017-07-29T02:33:16.252Z,1004.64
2017-07-29T02:33:42.403Z,1004.59
2017-07-29T02:34:08.508Z,1004.6
2017-07-29T02:34:34.649Z,1004.63
2017-07-29T02:35:00.769Z,1004.56
2017-07-29T02:35:26.946Z,1004.58
2017-07-29T02:35:53.066Z,1004.57
2017-07-29T02:36:19.179Z,1004.58
2017-07-29T02:36:45.338Z,1004.59
2017-07-29T02:37:11.516Z,1004.57
2017-07-29T02:37:37.650Z,1004.61
2017-07-29T02:38:03.739Z,1004.53
2017-07-29T02:38:29.907Z,1004.62
2017-07-29T02:38:56.042Z,1004.61
2017-07-29T02:39:22.164Z,1004.59
2017-07-29T02:39:48.326Z,1004.52
2017-07-29T02:40:14.459Z,1004.57
2017-07-29T02:40:40.609Z,1004.55
2017-07-29T02:41:06.747Z,1004.56
2017-07-29T02:41:32.913Z,1004.6
2017-07-29T02:41:59.030Z,1004.59
2017-07-29T02:42:25.231Z,1004.68
2017-07-29T02:42:51.351Z,1004.59
2017-07-29T02:43:17.492Z,1004.54
2017-07-29T02:43:43.626Z,1004.56
2017-07-29T02:44:09.758Z,1004.59
2017-07-29T02:44:35.849Z,1004.59
2017-07-29T02:45:01.978Z,1004.6
2017-07-29T02:45:28.161Z,1004.59
2017-07-29T02:45:54.278Z,1004.54
2017-07-29T02:46:20.433Z,1004.61
2017-07-29T02:46:46.594Z,1004.57
2017-07-29T02:47:12.729Z,1004.56
2017-07-29T02:47:38.855Z,1004.55
2017-07-29T02:48:04.974Z,1004.54
2017-07-29T02:48:31.081Z,1004.52
2017-07-29T02:48:57.236Z,1004.47
2017-07-29T02:49:23.352Z,1004.49
2017-07-29T02:49:49.454Z,1004.5
2017-07-29T02:50:15.589Z,1004.5
2017-07-29T02:50:41.701Z,1004.55
2017-07-29T02:51:07.802Z,1004.52
2017-07-29T02:51:33.906Z,1004.51
2017-07-29T02:51:59.996Z,1004.5
2017-07-29T02:52:26.190Z,1004.46
2017-07-29T02:52:52.299Z,1004.45
2017-07-29T02:53:18.451Z,1004.51
2017-07-29T02:53:44.556Z,1004.5
2017-07-29T02:54:10.669Z,1004.48
2017-07-29T02:54:36.771Z,1004.47
2017-07-29T02:55:02.903Z,1004.46
2017-07-29T02:55:29.043Z,1004.44
2017-07-29T02:55:55.141Z,1004.47
2017-07-29T02:56:21.246Z,1004.52
2017-07-29T02:56:47.339Z,1004.49
2017-07-29T02:57:13.477Z,1004.47
2017-07-29T02:57:39.587Z,1004.44
2017-07-29T02:58:05.711Z,1004.5
2017-07-29T02:58:31.825Z,1004.52
2017-07-29T02:58:58.009Z,1004.55
2017-07-29T02:59:24.150Z,1004.46
2017-07-29T02:59:50.255Z,1004.48
2017-07-29T03:00:16.445Z,1004.52
2017-07-29T03:00:42.535Z,1004.5
2017-07-29T03:01:08.674Z,1004.52
2017-07-29T03:01:34.800Z,1004.52
2017-07-29T03:02:00.971Z,1004.51
2017-07-29T03:02:27.099Z,1004.51
2017-07-29T03:02:53.227Z,1004.53
2017-07-29T03:03:19.341Z,1004.52
2017-07-29T03:03:45.498Z,1004.48
2017-07-29T03:04:11.662Z,1004.46
2017-07-29T03:04:37.755Z,1004.42
2017-07-29T03:05:03.851Z,1004.38
2017-07-29T03:05:29.944Z,1004.5
2017-07-29T03:05:56.109Z,1004.39
2017-07-29T03:06:22.292Z,1004.42
2017-07-29T03:06:48.408Z,1004.48
2017-07-29T03:07:14.533Z,1004.44
2017-07-29T03:07:40.666Z,1004.52
2017-07-29T03:08:06.854Z,1004.46
2017-07-29T03:08:32.952Z,1004.54
2017-07-29T03:08:59.087Z,1004.52
2017-07-29T03:09:25.228Z,1004.55
2017-07-29T03:09:51.327Z,1004.54
2017-07-29T03:10:17.425Z,1004.53
2017-07-29T03:10:43.525Z,1004.58
2017-07-29T03:11:09.658Z,1004.52
2017-07-29T03:11:35.772Z,1004.55
2017-07-29T03:12:01.919Z,1004.54
2017-07-29T03:12:28.084Z,1004.55
2017-07-29T03:12:54.249Z,1004.56
2017-07-29T03:13:20.345Z,1004.6
2017-07-29T03:13:46.452Z,1004.58
2017-07-29T03:14:12.606Z,1004.57
2017-07-29T03:14:38.741Z,1004.5
2017-07-29T03:15:04.905Z,1004.5
2017-07-29T03:15:31.057Z,1004.53
2017-07-29T03:15:57.244Z,1004.46
2017-07-29T03:16:23.376Z,1004.52
2017-07-29T03:16:49.510Z,1004.53
2017-07-29T03:17:15.603Z,1004.53
2017-07-29T03:17:41.732Z,1004.51
2017-07-29T03:18:07.866Z,1004.48
2017-07-29T03:18:34.007Z,1004.46
2017-07-29T03:19:00.180Z,1004.46
2017-07-29T03:19:26.342Z,1004.47
2017-07-29T03:19:52.432Z,1004.47
2017-07-29T03:20:18.579Z,1004.47
2017-07-29T03:20:44.713Z,1004.46
2017-07-29T03:21:10.830Z,1004.51
2017-07-29T03:21:36.964Z,1004.46
2017-07-29T03:22:03.079Z,1004.52
2017-07-29T03:22:29.205Z,1004.43
2017-07-29T03:22:55.393Z,1004.46
2017-07-29T03:23:21.507Z,1004.5
2017-07-29T03:23:47.629Z,1004.47
2017-07-29T03:24:13.790Z,1004.48
2017-07-29T03:24:39.934Z,1004.44
2017-07-29T03:25:06.050Z,1004.46
2017-07-29T03:25:32.215Z,1004.39
2017-07-29T03:25:58.311Z,1004.43
2017-07-29T03:26:24.429Z,1004.39
2017-07-29T03:26:50.563Z,1004.4
2017-07-29T03:27:16.707Z,1004.4
2017-07-29T03:27:42.837Z,1004.37
2017-07-29T03:28:08.995Z,1004.43
2017-07-29T03:28:35.132Z,1004.43
2017-07-29T03:29:01.241Z,1004.38
2017-07-29T03:29:27.365Z,1004.35
2017-07-29T03:29:53.480Z,1004.42
2017-07-29T03:30:19.913Z,1004.36
2017-07-29T03:30:46.091Z,1004.37
2017-07-29T03:31:12.253Z,1004.35
2017-07-29T03:31:38.404Z,1004.36
2017-07-29T03:32:04.574Z,1004.34
2017-07-29T03:32:30.735Z,1004.32
2017-07-29T03:32:56.914Z,1004.33
2017-07-29T03:33:23.053Z,1004.34
2017-07-29T03:33:49.184Z,1004.36
2017-07-29T03:34:15.313Z,1004.34
2017-07-29T03:34:41.502Z,1004.33
2017-07-29T03:35:07.658Z,1004.36
2017-07-29T03:35:33.822Z,1004.35
2017-07-29T03:35:59.934Z,1004.42
2017-07-29T03:36:26.059Z,1004.4
2017-07-29T03:36:52.250Z,1004.38
2017-07-29T03:37:18.393Z,1004.37
2017-07-29T03:37:44.515Z,1004.38
2017-07-29T03:38:10.689Z,1004.4
2017-07-29T03:38:36.820Z,1004.36
2017-07-29T03:39:02.983Z,1004.36
2017-07-29T03:39:29.130Z,1004.35
2017-07-29T03:39:55.260Z,1004.36
2017-07-29T03:40:21.421Z,1004.33
2017-07-29T03:40:47.512Z,1004.41
2017-07-29T03:41:13.659Z,1004.41
2017-07-29T03:41:39.793Z,1004.41
2017-07-29T03:42:05.888Z,1004.38
2017-07-29T03:42:32.002Z,1004.4
2017-07-29T03:42:58.138Z,1004.39
2017-07-29T03:43:24.284Z,1004.38
2017-07-29T03:43:50.408Z,1004.34
2017-07-29T03:44:16.524Z,1004.35
2017-07-29T03:44:42.656Z,1004.32
2017-07-29T03:45:08.815Z,1004.38
2017-07-29T03:45:34.963Z,1004.32
2017-07-29T03:46:01.053Z,1004.36
2017-07-29T03:46:27.163Z,1004.38
2017-07-29T03:46:53.286Z,1004.32
2017-07-29T03:47:19.377Z,1004.34
2017-07-29T03:47:45.536Z,1004.27
2017-07-29T03:48:11.693Z,1004.23
2017-07-29T03:48:37.855Z,1004.28
2017-07-29T03:49:04.011Z,1004.28
2017-07-29T03:49:30.129Z,1004.26
2017-07-29T03:49:56.238Z,1004.23
2017-07-29T03:50:22.420Z,1004.23
2017-07-29T03:50:48.536Z,1004.23
2017-07-29T03:51:14.691Z,1004.2
2017-07-29T03:51:40.816Z,1004.24
2017-07-29T03:52:06.953Z,1004.3
2017-07-29T03:52:33.111Z,1004.21
2017-07-29T03:52:59.291Z,1004.26
2017-07-29T03:53:25.450Z,1004.3
2017-07-29T03:53:51.550Z,1004.23
2017-07-29T03:54:17.713Z,1004.3
2017-07-29T03:54:43.829Z,1004.36
2017-07-29T03:55:09.934Z,1004.33
2017-07-29T03:55:36.072Z,1004.27
2017-07-29T03:56:02.227Z,1004.27
2017-07-29T03:56:28.390Z,1004.3
2017-07-29T03:56:54.479Z,1004.36
2017-07-29T03:57:20.579Z,1004.29
2017-07-29T03:57:46.739Z,1004.32
2017-07-29T03:58:12.884Z,1004.33
2017-07-29T03:58:38.983Z,1004.29
2017-07-29T03:59:05.116Z,1004.32
2017-07-29T03:59:31.235Z,1004.3
2017-07-29T03:59:57.325Z,1004.34
2017-07-29T04:00:23.436Z,1004.32
2017-07-29T04:00:49.588Z,1004.37
2017-07-29T04:01:15.704Z,1004.35
2017-07-29T04:01:41.866Z,1004.28
2017-07-29T04:02:07.994Z,1004.37
2017-07-29T04:02:34.110Z,1004.34
2017-07-29T04:03:00.239Z,1004.35
2017-07-29T04:03:26.374Z,1004.38
2017-07-29T04:03:52.461Z,1004.38
2017-07-29T04:04:18.646Z,1004.3
2017-07-29T04:04:44.780Z,1004.32
2017-07-29T04:05:10.923Z,1004.32
2017-07-29T04:05:37.050Z,1004.35
2017-07-29T04:06:03.170Z,1004.34
2017-07-29T04:06:29.322Z,1004.4
2017-07-29T04:06:55.489Z,1004.34
2017-07-29T04:07:21.575Z,1004.36
2017-07-29T04:07:47.699Z,1004.39
2017-07-29T04:08:13.861Z,1004.36
2017-07-29T04:08:39.953Z,1004.35
2017-07-29T04:09:06.098Z,1004.4
2017-07-29T04:09:32.235Z,1004.45
2017-07-29T04:09:58.354Z,1004.42
2017-07-29T04:10:24.451Z,1004.46
2017-07-29T04:10:50.617Z,1004.39
2017-07-29T04:11:16.769Z,1004.49
2017-07-29T04:11:42.893Z,1004.46
2017-07-29T04:12:09.010Z,1004.49
2017-07-29T04:12:35.131Z,1004.45
2017-07-29T04:13:01.318Z,1004.49
2017-07-29T04:13:27.442Z,1004.46
2017-07-29T04:13:53.561Z,1004.44
2017-07-29T04:14:19.747Z,1004.42
2017-07-29T04:14:45.927Z,1004.41
2017-07-29T04:15:12.070Z,1004.47
2017-07-29T04:15:38.202Z,1004.42
2017-07-29T04:16:04.328Z,1004.46
2017-07-29T04:16:30.444Z,1004.48
2017-07-29T04:16:56.573Z,1004.48
2017-07-29T04:17:22.763Z,1004.44
2017-07-29T04:17:48.901Z,1004.44
2017-07-29T04:18:15.054Z,1004.43
2017-07-29T04:18:41.144Z,1004.46
2017-07-29T04:19:07.248Z,1004.46
2017-07-29T04:19:33.434Z,1004.49
2017-07-29T04:19:59.524Z,1004.45
2017-07-29T04:20:25.656Z,1004.43
2017-07-29T04:20:51.793Z,1004.37
2017-07-29T04:21:17.903Z,1004.32
2017-07-29T04:21:44.030Z,1004.37
2017-07-29T04:22:10.137Z,1004.33
2017-07-29T04:22:36.254Z,1004.36
2017-07-29T04:23:02.444Z,1004.31
2017-07-29T04:23:28.533Z,1004.36
2017-07-29T04:23:54.666Z,1004.35
2017-07-29T04:24:20.855Z,1004.36
2017-07-29T04:24:46.989Z,1004.37
2017-07-29T04:25:13.089Z,1004.4
2017-07-29T04:25:39.222Z,1004.37
2017-07-29T04:26:05.362Z,1004.39
2017-07-29T04:26:31.509Z,1004.4
2017-07-29T04:26:57.641Z,1004.44
2017-07-29T04:27:23.736Z,1004.38
2017-07-29T04:27:49.850Z,1004.37
2017-07-29T04:28:16.007Z,1004.42
2017-07-29T04:28:42.154Z,1004.41
2017-07-29T04:29:08.289Z,1004.38
2017-07-29T04:29:34.403Z,1004.37
2017-07-29T04:30:00.526Z,1004.43
2017-07-29T04:30:26.661Z,1004.36
2017-07-29T04:30:52.782Z,1004.32
2017-07-29T04:31:18.896Z,1004.35
2017-07-29T04:31:45.057Z,1004.27
2017-07-29T04:32:11.152Z,1004.3
2017-07-29T04:32:37.268Z,1004.21
2017-07-29T04:33:03.400Z,1004.17
2017-07-29T04:33:29.526Z,1004.2
2017-07-29T04:33:55.625Z,1004.23
2017-07-29T04:34:21.766Z,1004.2
2017-07-29T04:34:47.880Z,1004.18
2017-07-29T04:35:14.018Z,1004.16
2017-07-29T04:35:40.142Z,1004.17
2017-07-29T04:36:06.257Z,1004.15
2017-07-29T04:36:32.389Z,1004.15
2017-07-29T04:36:58.489Z,1004.14
2017-07-29T04:37:24.604Z,1004.2
2017-07-29T04:37:50.733Z,1004.09
2017-07-29T04:38:16.867Z,1004.11
2017-07-29T04:38:43.056Z,1004.19
2017-07-29T04:39:09.156Z,1004.1
2017-07-29T04:39:35.301Z,1004.1
2017-07-29T04:40:01.432Z,1004.14
2017-07-29T04:40:27.557Z,1004.16
2017-07-29T04:40:53.674Z,1004.14
2017-07-29T04:41:19.829Z,1004.18
2017-07-29T04:41:45.968Z,1004.14
2017-07-29T04:42:12.130Z,1004.15
2017-07-29T04:42:38.256Z,1004.2
2017-07-29T04:43:04.418Z,1004.17
2017-07-29T04:43:30.509Z,1004.17
2017-07-29T04:43:56.630Z,1004.16
2017-07-29T04:44:22.763Z,1004.22
2017-07-29T04:44:48.909Z,1004.14
2017-07-29T04:45:14.998Z,1004.1
2017-07-29T04:45:41.161Z,1004.11
2017-07-29T04:46:07.314Z,1004.14
2017-07-29T04:46:33.428Z,1004.17
2017-07-29T04:46:59.596Z,1004.16
2017-07-29T04:47:25.720Z,1004.2
2017-07-29T04:47:51.858Z,1004.14
2017-07-29T04:48:17.962Z,1004.19
2017-07-29T04:48:44.124Z,1004.19
2017-07-29T04:49:10.282Z,1004.21
2017-07-29T04:49:36.383Z,1004.26
2017-07-29T04:50:02.517Z,1004.2
2017-07-29T04:50:28.687Z,1004.24
2017-07-29T04:50:54.789Z,1004.29
2017-07-29T04:51:20.905Z,1004.21
2017-07-29T04:51:47.007Z,1004.27
2017-07-29T04:52:13.114Z,1004.2
2017-07-29T04:52:39.226Z,1004.29
2017-07-29T04:53:05.352Z,1004.31
2017-07-29T04:53:31.510Z,1004.26
2017-07-29T04:53:57.606Z,1004.33
2017-07-29T04:54:23.722Z,1004.36
2017-07-29T04:54:49.860Z,1004.34
2017-07-29T04:55:16.032Z,1004.31
2017-07-29T04:55:42.147Z,1004.32
2017-07-29T04:56:08.276Z,1004.36
2017-07-29T04:56:34.382Z,1004.35
2017-07-29T04:57:00.513Z,1004.34
2017-07-29T04:57:26.650Z,1004.43
2017-07-29T04:57:52.797Z,1004.44
2017-07-29T04:58:18.957Z,1004.47
2017-07-29T04:58:45.132Z,1004.46
2017-07-29T04:59:11.245Z,1004.47
2017-07-29T04:59:37.409Z,1004.46
2017-07-29T05:00:03.566Z,1004.51
2017-07-29T05:00:29.678Z,1004.46
2017-07-29T05:00:55.810Z,1004.45
2017-07-29T05:01:21.995Z,1004.44
2017-07-29T05:01:48.097Z,1004.43
2017-07-29T05:02:14.214Z,1004.45
2017-07-29T05:02:40.354Z,1004.49
2017-07-29T05:03:06.577Z,1004.49
2017-07-29T05:03:32.725Z,1004.47
2017-07-29T05:03:58.815Z,1004.49
2017-07-29T05:04:24.921Z,1004.49
2017-07-29T05:04:51.105Z,1004.51
2017-07-29T05:05:17.244Z,1004.46
2017-07-29T05:05:43.373Z,1004.47
2017-07-29T05:06:09.507Z,1004.48
2017-07-29T05:06:35.592Z,1004.45
2017-07-29T05:07:01.716Z,1004.48
2017-07-29T05:07:27.862Z,1004.43
2017-07-29T05:07:54.099Z,1004.53
2017-07-29T05:08:20.283Z,1004.51
2017-07-29T05:08:46.470Z,1004.49
2017-07-29T05:09:12.603Z,1004.52
2017-07-29T05:09:38.738Z,1004.45
2017-07-29T05:10:04.902Z,1004.5
2017-07-29T05:10:31.053Z,1004.51
2017-07-29T05:10:57.187Z,1004.51
2017-07-29T05:11:23.301Z,1004.52
2017-07-29T05:11:49.422Z,1004.48
2017-07-29T05:12:15.582Z,1004.47
2017-07-29T05:12:41.702Z,1004.5
2017-07-29T05:13:07.838Z,1004.54
2017-07-29T05:13:34.001Z,1004.58
2017-07-29T05:14:00.150Z,1004.48
2017-07-29T05:14:26.310Z,1004.51
2017-07-29T05:14:52.400Z,1004.46
2017-07-29T05:15:18.547Z,1004.55
2017-07-29T05:15:44.682Z,1004.54
2017-07-29T05:16:10.830Z,1004.5
2017-07-29T05:16:36.949Z,1004.5
2017-07-29T05:17:03.059Z,1004.55
2017-07-29T05:17:29.156Z,1004.56